Flugplatz Schwäbisch Hall (EDTY)

Hier findest Du alle Informationen zum Flugplatz Schwäbisch Hall (EDTY).

Informationen für Piloten zum Flugplatz Schwäbisch Hall

Hier findest Du alle relevanten Informationen, die Du als Pilot benötigst, um Schwäbisch Hall anzufliegen.

Flugplatz: Schwäbisch Hall ICAO-Code: EDTY
Frequenz Turm: 129,225 Mhz GAFOR Gebiet: 55
Frequenz Ground: 129,225 Mhz Mogas: ja
Platzrunde: N 2500 ft Landegebühr: -
Platzhöhe: - Sunrise: 06:45 Uhr UTC
Pisten: 10/28 - 1540 m x 30 m, ASPH Sunset: 16:23 Uhr UTC

Flugwetter am Flugplatz Schwäbisch Hall

Die METAR Information stammen aus EDDS (62.55 km entfernt).

METAR Code:
2023/01/20 14:20
EDDS 201420Z AUTO VRB02KT 9999 FEW031 BKN044 01/M04 Q1016 NOSIG

Temperatur: 4,7 °C Niederschlag: - Wind: 2,0 kt
Temperatur (min.): 3,6 °C Luftdruck: 1035 hPa Windrichtung: 40 °
Temperatur (max.): 6,1 °C Luftfeuchtigkeit: 80 % Bewölkung: 6/8

Flugschulen am Flugplatz Schwäbisch Hall

Am Flugplatz Schwäbisch Hall gibt es leider keine Flugschule.

Benachbarte Flugplätze und Flugschulen

Es gibt 21 weitere Flugplätze in einem Umkreis von 50 km um den Flugplatz Schwäbisch Hall.

Jetzt anmelden

Passwort vergessen

Umfrage Archiv

Sendet Ihr ADS-B und/oder FLARM?

Ja
84.5 %
Nein
15.5 %
Stimmen: 277 | Diskussion
Anzeige: Roland Aircraft
Statistik Alle Mitglieder

Aktuell sind 37 Besucher online, davon 2 Mitglieder und 35 Gäste.


Mitglieder online:
FlightControl  Raventumble 

Anzeige: EasyVFR